createdAt,value
2022-09-10T00:01:39.639Z,14.20
2022-09-10T00:04:12.397Z,14.30
2022-09-10T00:06:41.020Z,14.10
2022-09-10T00:09:10.751Z,14.10
2022-09-10T00:11:41.973Z,14.00
2022-09-10T00:14:15.962Z,13.90
2022-09-10T00:16:44.548Z,13.90
2022-09-10T00:19:14.793Z,13.80
2022-09-10T00:21:44.301Z,13.80
2022-09-10T00:24:12.639Z,13.90
2022-09-10T00:26:42.143Z,13.90
2022-09-10T00:29:15.837Z,13.90
2022-09-10T00:31:44.874Z,13.90
2022-09-10T00:34:14.291Z,13.90
2022-09-10T00:36:44.304Z,13.90
2022-09-10T00:39:15.353Z,13.90
2022-09-10T00:41:48.284Z,13.90
2022-09-10T00:45:02.684Z,13.90
2022-09-10T00:47:36.498Z,13.90
2022-09-10T00:50:21.525Z,13.90
2022-09-10T00:52:50.772Z,13.80
2022-09-10T00:55:19.953Z,13.80
2022-09-10T00:57:55.783Z,13.80
2022-09-10T01:00:24.424Z,13.70
2022-09-10T01:02:52.986Z,13.70
2022-09-10T01:05:22.224Z,13.60
2022-09-10T01:07:50.534Z,13.60
2022-09-10T01:10:26.849Z,13.60
2022-09-10T01:13:25.674Z,13.60
2022-09-10T01:16:08.868Z,13.60
2022-09-10T01:18:52.457Z,13.50
2022-09-10T01:21:34.068Z,13.50
2022-09-10T01:24:36.784Z,13.40
2022-09-10T01:27:39.233Z,13.40
2022-09-10T01:30:15.143Z,13.40
2022-09-10T01:32:59.367Z,13.40
2022-09-10T01:35:38.310Z,13.30
2022-09-10T01:38:15.177Z,13.30
2022-09-10T01:40:46.357Z,13.40
2022-09-10T01:43:15.861Z,13.40
2022-09-10T01:45:59.451Z,13.50
2022-09-10T01:48:54.115Z,13.50
2022-09-10T01:51:34.388Z,13.40
2022-09-10T01:54:26.800Z,13.40
2022-09-10T01:57:10.727Z,13.40
2022-09-10T01:59:50.871Z,13.40
2022-09-10T02:02:28.780Z,13.30
2022-09-10T02:04:58.486Z,13.40
2022-09-10T02:07:29.312Z,13.40
2022-09-10T02:09:57.566Z,13.40
2022-09-10T02:12:25.818Z,13.40
2022-09-10T02:14:57.989Z,13.40
2022-09-10T02:17:32.017Z,13.40
2022-09-10T02:20:03.182Z,13.40
2022-09-10T02:22:36.293Z,13.30
2022-09-10T02:25:06.662Z,13.30
2022-09-10T02:27:35.445Z,13.30
2022-09-10T02:30:06.976Z,13.30
2022-09-10T02:32:35.291Z,13.30
2022-09-10T02:35:03.414Z,13.20
2022-09-10T02:37:31.459Z,13.20
2022-09-10T02:39:59.625Z,13.20
2022-09-10T02:42:27.654Z,13.20
2022-09-10T02:44:56.477Z,13.20
2022-09-10T02:47:26.400Z,13.20
2022-09-10T02:49:54.524Z,13.20
2022-09-10T02:52:23.024Z,13.20
2022-09-10T02:54:51.359Z,13.20
2022-09-10T02:57:19.488Z,13.10
2022-09-10T02:59:47.447Z,13.20
2022-09-10T03:02:15.499Z,13.20
2022-09-10T03:04:44.973Z,13.20
2022-09-10T03:07:17.043Z,13.10
2022-09-10T03:09:45.068Z,13.10
2022-09-10T03:12:15.038Z,13.20
2022-09-10T03:14:43.262Z,13.10
2022-09-10T03:17:11.902Z,13.10
2022-09-10T03:19:40.425Z,13.10
2022-09-10T03:22:11.215Z,13.10
2022-09-10T03:24:39.299Z,13.20
2022-09-10T03:27:08.528Z,13.20
2022-09-10T03:29:36.613Z,13.20
2022-09-10T03:32:04.693Z,13.30
2022-09-10T03:34:32.766Z,13.30
2022-09-10T03:37:00.947Z,13.20
2022-09-10T03:39:30.762Z,13.30
2022-09-10T03:41:59.454Z,13.30
2022-09-10T03:44:27.589Z,13.40
2022-09-10T03:46:55.760Z,13.30
2022-09-10T03:49:23.935Z,13.40
2022-09-10T03:51:51.943Z,13.40
2022-09-10T03:54:19.991Z,13.40
2022-09-10T03:56:49.357Z,13.50
2022-09-10T03:59:17.584Z,13.40
2022-09-10T04:01:46.173Z,13.40
2022-09-10T04:04:14.916Z,13.40
2022-09-10T04:06:44.536Z,13.50
2022-09-10T04:09:12.925Z,13.50
2022-09-10T04:11:40.941Z,13.50
2022-09-10T04:14:10.492Z,13.40
2022-09-10T04:16:38.637Z,13.50
2022-09-10T04:19:06.738Z,13.50
2022-09-10T04:21:34.870Z,13.40
2022-09-10T04:24:03.645Z,13.40
2022-09-10T04:26:31.741Z,13.40
2022-09-10T04:28:59.778Z,13.40
2022-09-10T04:31:29.292Z,13.50
2022-09-10T04:34:01.279Z,13.40
2022-09-10T04:36:32.173Z,13.50
2022-09-10T04:39:00.182Z,13.40
2022-09-10T04:41:28.250Z,13.50
2022-09-10T04:43:56.303Z,13.50
2022-09-10T04:46:24.731Z,13.50
2022-09-10T04:48:54.246Z,13.50
2022-09-10T04:51:22.273Z,13.50
2022-09-10T04:53:50.351Z,13.60
2022-09-10T04:56:19.952Z,13.60
2022-09-10T04:58:48.800Z,13.60
2022-09-10T05:01:17.094Z,13.60
2022-09-10T05:03:45.348Z,13.50
2022-09-10T05:06:14.778Z,13.50
2022-09-10T05:08:42.826Z,13.50
2022-09-10T05:11:11.459Z,13.50
2022-09-10T05:13:39.526Z,13.40
2022-09-10T05:16:08.743Z,13.40
2022-09-10T05:18:36.879Z,13.50
2022-09-10T05:21:05.313Z,13.50
2022-09-10T05:23:35.057Z,13.50
2022-09-10T05:26:03.134Z,13.50
2022-09-10T05:28:31.325Z,13.60
2022-09-10T05:30:59.630Z,13.60
2022-09-10T05:33:28.055Z,13.60
2022-09-10T05:35:56.365Z,13.50
2022-09-10T05:38:25.021Z,13.60
2022-09-10T05:40:54.713Z,13.50
2022-09-10T05:43:22.711Z,13.50
2022-09-10T05:45:51.946Z,13.50
2022-09-10T05:48:20.475Z,13.60
2022-09-10T05:50:48.754Z,13.60
2022-09-10T05:53:16.971Z,13.60
2022-09-10T05:55:45.995Z,13.60
2022-09-10T05:58:16.187Z,13.70
2022-09-10T06:00:44.284Z,13.80
2022-09-10T06:03:12.795Z,13.80
2022-09-10T06:05:41.271Z,13.80
2022-09-10T06:08:09.386Z,14.00
2022-09-10T06:10:37.389Z,14.10
2022-09-10T06:13:06.760Z,14.10
2022-09-10T06:15:37.891Z,14.20
2022-09-10T06:18:05.978Z,14.40
2022-09-10T06:20:34.278Z,14.60
2022-09-10T06:23:02.367Z,14.80
2022-09-10T06:25:31.324Z,15.10
2022-09-10T06:27:59.412Z,15.20
2022-09-10T06:30:27.853Z,15.30
2022-09-10T06:32:57.640Z,15.40
2022-09-10T06:35:27.121Z,15.50
2022-09-10T06:37:55.885Z,15.60
2022-09-10T06:40:27.580Z,15.60
2022-09-10T06:42:55.589Z,15.60
2022-09-10T06:45:24.240Z,15.50
2022-09-10T06:48:37.044Z,15.30
2022-09-10T06:50:53.164Z,15.50
2022-09-10T06:53:23.023Z,15.50
2022-09-10T06:55:52.354Z,15.50
2022-09-10T06:58:23.408Z,15.50
2022-09-10T07:00:52.682Z,15.50
2022-09-10T07:03:23.348Z,15.60
2022-09-10T07:05:53.405Z,15.70
2022-09-10T07:08:22.440Z,15.90
2022-09-10T07:10:50.553Z,16.10
2022-09-10T07:13:18.822Z,16.10
2022-09-10T07:15:47.773Z,16.40
2022-09-10T07:18:16.338Z,16.40
2022-09-10T07:20:46.175Z,16.70
2022-09-10T07:23:19.340Z,16.60
2022-09-10T07:25:48.644Z,16.60
2022-09-10T07:28:19.578Z,16.50
2022-09-10T07:30:47.654Z,16.50
2022-09-10T07:33:15.683Z,16.70
2022-09-10T07:35:44.230Z,16.70
2022-09-10T07:38:16.940Z,16.60
2022-09-10T07:40:45.020Z,16.80
2022-09-10T07:43:13.240Z,16.90
2022-09-10T07:45:42.219Z,17.00
2022-09-10T07:48:12.465Z,16.90
2022-09-10T07:50:40.786Z,16.90
2022-09-10T07:53:08.807Z,17.20
2022-09-10T07:55:38.460Z,17.30
2022-09-10T07:58:06.767Z,17.40
2022-09-10T08:00:37.233Z,17.50
2022-09-10T08:03:05.501Z,17.50
2022-09-10T08:05:33.764Z,17.40
2022-09-10T08:08:01.854Z,17.40
2022-09-10T08:10:30.048Z,17.30
2022-09-10T08:12:59.658Z,17.40
2022-09-10T08:15:28.289Z,17.50
2022-09-10T08:17:56.715Z,17.60
2022-09-10T08:20:26.685Z,17.70
2022-09-10T08:22:57.315Z,17.70
2022-09-10T08:25:25.381Z,17.60
2022-09-10T08:27:54.400Z,17.70
2022-09-10T08:30:24.003Z,17.80
2022-09-10T08:32:52.097Z,17.80
2022-09-10T08:35:20.891Z,17.90
2022-09-10T08:37:48.886Z,17.90
2022-09-10T08:40:18.270Z,17.90
2022-09-10T08:42:51.078Z,18.00
2022-09-10T08:45:26.306Z,18.20
2022-09-10T08:48:02.297Z,18.40
2022-09-10T08:50:42.927Z,18.40
2022-09-10T08:53:27.092Z,18.50
2022-09-10T08:56:02.803Z,18.30
2022-09-10T08:58:43.416Z,18.40
2022-09-10T09:01:22.448Z,18.60
2022-09-10T09:03:54.852Z,18.70
2022-09-10T09:06:31.221Z,18.70
2022-09-10T09:09:02.015Z,18.70
2022-09-10T09:11:43.037Z,18.80
2022-09-10T09:14:58.501Z,18.80
2022-09-10T09:17:52.410Z,18.90
2022-09-10T09:20:35.970Z,18.90
2022-09-10T09:23:20.434Z,19.10
2022-09-10T09:25:51.349Z,19.00
2022-09-10T09:28:37.610Z,19.10
2022-09-10T09:31:13.943Z,19.00
2022-09-10T09:33:46.106Z,19.10
2022-09-10T09:36:31.194Z,19.20
2022-09-10T09:38:59.325Z,19.20
2022-09-10T09:41:43.294Z,19.40
2022-09-10T09:44:24.080Z,19.30
2022-09-10T09:46:52.181Z,19.30
2022-09-10T09:49:22.150Z,19.30
2022-09-10T09:51:51.807Z,19.30
2022-09-10T09:57:19.542Z,19.60
2022-09-10T09:59:49.678Z,19.90
2022-09-10T10:02:22.703Z,20.00
2022-09-10T10:05:09.472Z,20.20
2022-09-10T10:07:38.058Z,20.40
2022-09-10T10:10:08.836Z,20.70
2022-09-10T10:12:50.733Z,20.60
2022-09-10T10:15:38.744Z,20.40
2022-09-10T10:18:32.650Z,20.50
2022-09-10T10:21:19.944Z,20.50
2022-09-10T10:23:49.482Z,20.30
2022-09-10T10:26:30.367Z,20.30
2022-09-10T10:29:06.481Z,20.30
2022-09-10T10:31:42.044Z,20.50
2022-09-10T10:34:42.050Z,20.40
2022-09-10T10:37:38.398Z,20.60
2022-09-10T10:40:26.476Z,20.30
2022-09-10T10:43:11.751Z,20.50
2022-09-10T10:45:57.105Z,20.50
2022-09-10T10:48:44.707Z,20.70
2022-09-10T10:51:24.983Z,20.90
2022-09-10T10:54:15.215Z,21.30
2022-09-10T10:56:56.180Z,21.30
2022-09-10T10:59:50.264Z,21.20
2022-09-10T11:02:39.436Z,20.90
2022-09-10T11:05:31.543Z,20.90
2022-09-10T11:08:07.152Z,21.20
2022-09-10T11:10:44.478Z,21.20
2022-09-10T11:13:21.909Z,21.10
2022-09-10T11:15:59.303Z,21.30
2022-09-10T11:18:35.187Z,21.30
2022-09-10T11:21:15.595Z,20.80
2022-09-10T11:23:51.536Z,20.70
2022-09-10T11:26:28.374Z,20.80
2022-09-10T11:29:14.662Z,21.00
2022-09-10T11:31:48.889Z,21.40
2022-09-10T11:34:29.263Z,21.50
2022-09-10T11:37:06.306Z,21.50
2022-09-10T11:39:39.628Z,21.70
2022-09-10T11:42:21.103Z,22.00
2022-09-10T11:45:01.953Z,21.90
2022-09-10T11:47:38.311Z,22.00
2022-09-10T11:50:21.665Z,22.40
2022-09-10T11:52:50.508Z,22.80
2022-09-10T11:55:19.109Z,23.40
2022-09-10T11:58:06.852Z,23.50
2022-09-10T12:00:52.689Z,23.70
2022-09-10T12:04:01.650Z,23.70
2022-09-10T12:06:46.194Z,23.90
2022-09-10T12:09:25.733Z,23.90
2022-09-10T12:12:07.552Z,23.50
2022-09-10T12:14:41.507Z,23.70
2022-09-10T12:17:18.426Z,23.70
2022-09-10T12:19:51.784Z,23.70
2022-09-10T12:22:26.825Z,23.80
2022-09-10T12:25:01.536Z,23.70
2022-09-10T12:27:48.896Z,23.90
2022-09-10T12:31:03.118Z,23.80
2022-09-10T12:34:18.037Z,23.90
2022-09-10T12:37:26.411Z,23.80
2022-09-10T12:40:49.403Z,24.20
2022-09-10T12:43:55.844Z,24.60
2022-09-10T12:46:26.905Z,23.90
2022-09-10T12:49:13.398Z,23.00
2022-09-10T12:51:59.665Z,22.60
2022-09-10T12:54:52.518Z,22.70
2022-09-10T12:57:41.220Z,23.10
2022-09-10T13:00:21.969Z,23.20
2022-09-10T13:02:59.142Z,22.90
2022-09-10T13:05:33.133Z,22.50
2022-09-10T13:08:18.449Z,23.10
2022-09-10T13:10:50.913Z,23.40
2022-09-10T13:13:41.179Z,23.20
2022-09-10T13:16:18.234Z,23.70
2022-09-10T13:18:55.069Z,24.10
2022-09-10T13:21:55.079Z,24.80
2022-09-10T13:25:01.028Z,25.70
2022-09-10T13:27:41.618Z,26.30
2022-09-10T13:30:19.239Z,25.40
2022-09-10T13:32:52.998Z,24.30
2022-09-10T13:36:01.467Z,24.60
2022-09-10T13:39:08.517Z,25.10
2022-09-10T13:42:08.851Z,25.30
2022-09-10T13:45:09.177Z,25.50
2022-09-10T13:47:47.091Z,25.80
2022-09-10T13:50:20.472Z,26.30
2022-09-10T13:52:56.719Z,25.90
2022-09-10T13:55:29.757Z,25.70
2022-09-10T13:58:05.924Z,24.80
2022-09-10T14:00:42.360Z,25.00
2022-09-10T14:03:23.219Z,25.70
2022-09-10T14:05:55.196Z,25.90
2022-09-10T14:08:30.754Z,24.90
2022-09-10T14:11:06.724Z,25.50
2022-09-10T14:13:40.772Z,26.50
2022-09-10T14:16:14.169Z,26.10
2022-09-10T14:18:46.899Z,26.40
2022-09-10T14:21:17.124Z,26.70
2022-09-10T14:23:49.239Z,26.00
2022-09-10T14:26:24.162Z,26.20
2022-09-10T14:28:58.908Z,26.50
2022-09-10T14:31:37.633Z,26.50
2022-09-10T14:34:27.223Z,26.40
2022-09-10T14:36:55.407Z,25.60
2022-09-10T14:39:26.327Z,24.90
2022-09-10T14:42:12.001Z,24.80
2022-09-10T14:44:44.342Z,24.60
2022-09-10T14:47:29.002Z,24.30
2022-09-10T14:50:31.930Z,23.80
2022-09-10T14:53:00.119Z,23.50
2022-09-10T14:55:33.128Z,23.70
2022-09-10T14:58:01.547Z,25.00
2022-09-10T15:00:32.483Z,26.30
2022-09-10T15:03:00.661Z,26.70
2022-09-10T15:05:29.746Z,26.50
2022-09-10T15:07:58.183Z,26.70
2022-09-10T15:10:26.382Z,27.10
2022-09-10T15:12:58.891Z,27.10
2022-09-10T15:15:28.043Z,27.30
2022-09-10T15:17:57.243Z,27.50
2022-09-10T15:20:27.990Z,27.60
2022-09-10T15:22:56.440Z,27.40
2022-09-10T15:25:38.550Z,26.50
2022-09-10T15:28:08.690Z,26.00
2022-09-10T15:30:37.059Z,25.10
2022-09-10T15:33:06.784Z,24.70
2022-09-10T15:35:35.029Z,24.60
2022-09-10T15:38:03.314Z,23.90
2022-09-10T15:40:31.885Z,23.20
2022-09-10T15:43:00.161Z,22.80
2022-09-10T15:45:29.559Z,22.70
2022-09-10T15:47:57.954Z,22.50
2022-09-10T15:50:26.328Z,22.40
2022-09-10T15:52:54.359Z,22.10
2022-09-10T15:55:22.478Z,21.60
2022-09-10T15:57:51.352Z,21.60
2022-09-10T16:00:20.442Z,21.40
2022-09-10T16:02:53.873Z,21.40
2022-09-10T16:05:22.486Z,21.40
2022-09-10T16:07:50.535Z,21.30
2022-09-10T16:10:18.681Z,21.30
2022-09-10T16:12:46.722Z,21.50
2022-09-10T16:15:14.882Z,21.40
2022-09-10T16:17:42.957Z,21.40
2022-09-10T16:20:12.929Z,21.40
2022-09-10T16:22:41.273Z,21.40
2022-09-10T16:25:10.116Z,21.30
2022-09-10T16:27:42.611Z,21.30
2022-09-10T16:30:13.752Z,21.20
2022-09-10T16:32:41.872Z,21.10
2022-09-10T16:35:11.944Z,21.00
2022-09-10T16:37:40.091Z,20.90
2022-09-10T16:40:11.330Z,20.90
2022-09-10T16:42:39.437Z,20.80
2022-09-10T16:45:09.377Z,20.80
2022-09-10T16:47:38.071Z,20.70
2022-09-10T16:50:06.957Z,20.70
2022-09-10T16:52:36.793Z,20.40
2022-09-10T16:55:07.114Z,20.20
2022-09-10T16:57:35.250Z,20.10
2022-09-10T17:00:05.934Z,19.90
2022-09-10T17:02:35.180Z,19.90
2022-09-10T17:05:03.366Z,19.90
2022-09-10T17:07:31.437Z,19.60
2022-09-10T17:10:01.251Z,19.60
2022-09-10T17:12:29.483Z,19.60
2022-09-10T17:14:57.583Z,19.50
2022-09-10T17:17:27.238Z,19.50
2022-09-10T17:19:56.171Z,19.50
2022-09-10T17:22:24.345Z,19.50
2022-09-10T17:24:53.984Z,19.50
2022-09-10T17:27:25.583Z,19.40
2022-09-10T17:29:55.121Z,19.20
2022-09-10T17:32:23.855Z,19.40
2022-09-10T17:34:51.926Z,19.30
2022-09-10T17:37:20.238Z,19.40
2022-09-10T17:39:48.310Z,19.50
2022-09-10T17:42:16.333Z,19.50
2022-09-10T17:44:47.145Z,19.60
2022-09-10T17:47:15.297Z,19.70
2022-09-10T17:49:43.531Z,19.70
2022-09-10T17:52:11.662Z,19.60
2022-09-10T17:54:39.947Z,19.40
2022-09-10T17:57:08.324Z,19.40
2022-09-10T17:59:37.169Z,19.10
2022-09-10T18:02:07.985Z,18.90
2022-09-10T18:04:36.477Z,18.70
2022-09-10T18:07:04.597Z,18.60
2022-09-10T18:09:32.784Z,18.50
2022-09-10T18:12:01.365Z,18.40
2022-09-10T18:14:29.551Z,18.30
2022-09-10T18:16:58.316Z,18.20
2022-09-10T18:19:27.988Z,18.10
2022-09-10T18:21:56.030Z,18.10
2022-09-10T18:24:25.051Z,18.10
2022-09-10T18:26:56.341Z,18.10
2022-09-10T18:29:27.138Z,18.00
2022-09-10T18:31:57.628Z,17.90
2022-09-10T18:34:29.824Z,18.00
2022-09-10T18:37:00.516Z,17.90
2022-09-10T18:39:31.694Z,17.80
2022-09-10T18:42:00.885Z,17.80
2022-09-10T18:44:33.125Z,17.80
2022-09-10T18:47:01.230Z,17.80
2022-09-10T18:49:30.894Z,17.70
2022-09-10T18:51:59.207Z,17.60
2022-09-10T18:54:29.556Z,17.50
2022-09-10T18:56:58.660Z,17.40
2022-09-10T18:59:27.965Z,17.30
2022-09-10T19:01:57.031Z,17.20
2022-09-10T19:04:28.038Z,17.10
2022-09-10T19:06:58.973Z,17.00
2022-09-10T19:09:29.621Z,17.00
2022-09-10T19:12:00.295Z,16.90
2022-09-10T19:14:30.766Z,16.90
2022-09-10T19:17:01.187Z,16.70
2022-09-10T19:19:32.099Z,16.70
2022-09-10T19:22:06.998Z,16.70
2022-09-10T19:24:55.011Z,16.70
2022-09-10T19:27:23.826Z,16.80
2022-09-10T19:29:52.228Z,16.70
2022-09-10T19:32:21.067Z,16.70
2022-09-10T19:34:51.008Z,16.90
2022-09-10T19:37:21.035Z,16.60
2022-09-10T19:39:49.748Z,16.60
2022-09-10T19:42:18.217Z,16.50
2022-09-10T19:44:46.287Z,16.50
2022-09-10T19:47:14.371Z,16.40
2022-09-10T19:49:42.404Z,16.30
2022-09-10T19:52:11.111Z,16.20
2022-09-10T19:54:40.610Z,16.20
2022-09-10T19:57:08.660Z,16.30
2022-09-10T19:59:36.984Z,16.40
2022-09-10T20:02:05.296Z,16.40
2022-09-10T20:04:36.698Z,16.30
2022-09-10T20:07:05.072Z,16.30
2022-09-10T20:09:37.907Z,16.40
2022-09-10T20:12:09.723Z,16.30
2022-09-10T20:14:38.344Z,16.30
2022-09-10T20:17:06.515Z,16.30
2022-09-10T20:19:35.613Z,16.20
2022-09-10T20:22:03.748Z,16.30
2022-09-10T20:24:32.196Z,16.20
2022-09-10T20:27:00.189Z,16.10
2022-09-10T20:29:32.835Z,16.20
2022-09-10T20:32:01.305Z,16.10
2022-09-10T20:34:29.469Z,16.10
2022-09-10T20:36:57.682Z,16.10
2022-09-10T20:39:25.954Z,16.10
2022-09-10T20:41:54.841Z,16.10
2022-09-10T20:44:23.288Z,16.20
2022-09-10T20:46:53.188Z,16.30
2022-09-10T20:49:21.404Z,16.40
2022-09-10T20:51:49.487Z,16.30
2022-09-10T20:54:20.005Z,16.40
2022-09-10T20:56:48.278Z,16.30
2022-09-10T20:59:19.230Z,16.10
2022-09-10T21:01:50.716Z,16.00
2022-09-10T21:04:21.847Z,15.90
2022-09-10T21:06:50.092Z,15.80
2022-09-10T21:09:18.460Z,15.80
2022-09-10T21:11:46.575Z,15.70
2022-09-10T21:14:15.004Z,15.70
2022-09-10T21:16:43.528Z,15.60
2022-09-10T21:19:13.853Z,15.60
2022-09-10T21:21:45.963Z,15.60
2022-09-10T21:24:16.654Z,15.60
2022-09-10T21:26:45.881Z,15.60
2022-09-10T21:29:16.851Z,15.60
2022-09-10T21:31:46.235Z,15.40
2022-09-10T21:34:15.244Z,15.10
2022-09-10T21:36:45.132Z,15.00
2022-09-10T21:39:15.774Z,15.00
2022-09-10T21:41:47.403Z,15.00
2022-09-10T21:44:17.538Z,15.00
2022-09-10T21:46:47.647Z,14.80
2022-09-10T21:49:16.831Z,14.70
2022-09-10T21:51:46.670Z,14.70
2022-09-10T21:54:18.517Z,14.60
2022-09-10T21:56:47.560Z,14.70
2022-09-10T21:59:16.639Z,14.70
2022-09-10T22:01:47.426Z,14.70
2022-09-10T22:04:22.187Z,14.80
2022-09-10T22:06:53.872Z,14.80
2022-09-10T22:09:22.267Z,14.70
2022-09-10T22:11:54.117Z,14.70
2022-09-10T22:14:24.758Z,14.70
2022-09-10T22:16:54.952Z,14.60
2022-09-10T22:19:25.906Z,14.70
2022-09-10T22:21:56.804Z,14.70
2022-09-10T22:24:26.083Z,14.80
2022-09-10T22:26:54.501Z,14.90
2022-09-10T22:29:22.807Z,14.90
2022-09-10T22:31:51.234Z,14.90
2022-09-10T22:34:20.678Z,14.90
2022-09-10T22:36:49.489Z,14.90
2022-09-10T22:39:22.003Z,14.90
2022-09-10T22:41:51.905Z,14.90
2022-09-10T22:44:20.504Z,14.90
2022-09-10T22:46:48.851Z,14.90
2022-09-10T22:49:17.927Z,14.80
2022-09-10T22:51:46.024Z,14.80
2022-09-10T22:54:14.786Z,14.70
2022-09-10T22:56:44.463Z,14.70
2022-09-10T22:59:14.669Z,14.80
2022-09-10T23:01:45.913Z,14.70
2022-09-10T23:04:14.148Z,14.60
2022-09-10T23:06:42.176Z,14.60
2022-09-10T23:09:16.073Z,14.60
2022-09-10T23:11:47.682Z,14.60
2022-09-10T23:14:19.254Z,14.60
2022-09-10T23:16:51.837Z,14.60
2022-09-10T23:19:21.968Z,14.50
2022-09-10T23:21:53.242Z,14.50
2022-09-10T23:24:26.269Z,14.40
2022-09-10T23:26:56.713Z,14.40
2022-09-10T23:29:27.246Z,14.40
2022-09-10T23:31:55.231Z,14.50
2022-09-10T23:34:24.168Z,14.40
2022-09-10T23:36:53.434Z,14.50
2022-09-10T23:39:24.359Z,14.60
2022-09-10T23:41:56.665Z,14.60
2022-09-10T23:44:25.008Z,14.70
2022-09-10T23:46:53.604Z,14.70
2022-09-10T23:49:21.601Z,14.70
2022-09-10T23:51:49.796Z,14.60
2022-09-10T23:54:18.258Z,14.60
2022-09-10T23:56:46.472Z,14.60
2022-09-10T23:59:16.328Z,14.70
